Tropical Cyclones
[Index]
Main Index Home Page Stock Weather Photos Extreme Storms Discussion Storm News and Storm Chasing Reports Tropical Cyclones / Hurricanes / Typhoons Weather Data and Links Wild Fires / Bushfires Weather Observation Techniques Weather Picture Catalogue Tornado Pictures and Reports Stock Video Footage and DVDs for sale
Season 1960-1961 Tropical Cyclone 196061_13 Track Map
Season 1960-1961 Summaries: [BoM-AU] [JTWC-AU] [JTWC-SIO] [JTWC-SPAC] [JTWC-SH]
<<- Previous TC | BoM 1960-1961 Season | Next TC ->>

click for intensity scale information  Lat/long Grid: Show Hide

 Date Labels: Show Hide

Bureau of Meteorology Tropical Cyclone Data

Name: 196061_13
Number: 340 / 196061_13

02 Mar 1961 02:00 UTC to 08 Mar 1961 17:00 UTC

    date/time    lat    long    hPa   cat  kts
1961-03-02 02   11.0   136.5    995    1                
1961-03-02 11   11.7   138.7    992    1                
1961-03-02 17   12.6   141.0    988    1                
1961-03-02 20   12.8   141.6    988    1                
1961-03-02 23   13.1   142.5    990    1                
1961-03-03 00   13.8   143.7    991    1                
1961-03-03 11   16.3   147.5    990    1                
1961-03-03 23   18.0   150.0    992    1                
1961-03-04 08   19.7   152.0    994    1                
1961-03-04 11   19.6   153.6    996                     
1961-03-04 23   18.2   154.7    996                     
1961-03-05 11   17.7   156.9    994    1                
1961-03-05 23   17.2   159.2    994    1                
1961-03-06 16   16.3   161.3    994    1                
1961-03-06 23   15.3   161.3    994    1                
1961-03-07 17   13.0   159.0    996                     
1961-03-07 23   12.3   159.3    996                     
1961-03-08 08   12.5   160.0    997                     
1961-03-08 17   13.3   159.7    999                     
Winds are 10-min average.

Tropical cyclone tracks developed by Michael Bath using data from the Bureau of Meteorology and Google Maps.


[Australian Severe Weather index] [Copyright Notice] [Email Contacts] [Search This Site] [Privacy Policy]
Document: tropical_cyclone_196061_13.htm Updated: 30 May 2013